Aérodrome :
LOGIN :

S'inscrire | Disclaimer

   EN    FR    IT 

 










Légende :    VFR   VFR Marginal   IFR   IFR Intensif   IFR Très Intensif
Visi : 
Plafond : 
>= 8 km
>= 3000ft
5 à 8 km
1000 à 3000 ft
1500m à 5 km
500 à 1000 ft
800 à 1500m
200 à 500 ft
< 800m
< 200 ft
Symboles :   Orages  Brouillard  Fortes neiges  Fortes précipitations  Vent > 20 kt
SIGMETs :   Divers  Orages  Givrage  Turbulence  Onde Orograph.  Cendres Volcan.







- Altitude de l'aérodrome : 416 ft
- Code IATA : OVD


LEAS - Asturias

DERNIER METAR :
  • 220130Z AUTO 08004KT 050V120 4500 BR OVC007/// 17/17 Q1023

METARs EXPIRÉS :
  • 220100Z AUTO 08004KT 4300 BR OVC008/// 17/17 Q1023
  • 220030Z AUTO 08005KT 050V120 4300 BR OVC008/// 17/17 Q1023
  • 220000Z 08003KT 030V120 5000 BCFG BKN006 17/17 Q1023 TEMPO 2000 BCFG
  • 212330Z 08004KT 050V120 4000 BCFG BKN007 17/17 Q1024 TEMPO 2000 BCFG
  • 212300Z 08006KT 050V120 4000 BCFG BKN007 17/17 Q1024 TEMPO 2000 BCFG

TAF TAF LEAS
Valide du 21 à 21h jusqu'au 22 à 21h UTC


212000Z 2121/2221 08007KT 3000 BR BCFG SCT005 BKN010 TX21/2213Z TN16/2205Z
TEMPO 2121/2208 0800 BCFG BKN002
PROB40
TEMPO 2121/2203 0350 FG VV001
BECMG 2209/2211 9000 NSW
TEMPO 2211/2218 07015G25KT
Pas de NOTAMs connus pour ce terrain.
1 SIGMET publié pour la FIR Madrid (LECM) :
 
Orages noyés dans la masse
LECM SIGMET 1 VALID 220030/220400 LEVA
LECM MADRID FIR/UIR EMBD TS OBS AT 0025Z S OF LINE N3752 W00715 - N3752 W00457 TOP FL380 MOV NNW 15KT NC=



MET'MAP, la Météo Aéronautique d'un coup d'oeil ! - Copyright ORBIFLY Décembre 2007 - Disclaimer

ORBIFLY MET'MAP TEAM :

Programmation & Développement : Alexandra Zaïnal
Conception & Développement : Baudouin d'Aumeries
Co-Programmation & Développement : Marc-Olivier Méhu
Soutien technique & logistique : Manuel Goepfert

Contact : metmap@orbifly.com




SOURCES & CREDITS :

   NOAA